Time;durP1;ratioP1;P1;durP2;ratioP2;P2;SDS_P1;SDS_P2;PMS_P1;PMS_P2;Temp;Humidity;BMP_temperature;BMP_pressure;BME280_temperature;BME280_humidity;BME280_pressure;Samples;Min_cycle;Max_cycle;Signal;HPM_P1;HPM_P2
2022/12/08 00:52:50;;;;;;;28.90;11.83;;;;;;;;;;6257275;22;20198;-94
2022/12/08 00:55:55;;;;;;;21.10;10.10;;;;;;;;;;6290061;22;20227;-92
2022/12/08 00:59:01;;;;;;;28.00;11.57;;;;;;;;;;6290296;22;20162;-92
2022/12/08 01:02:06;;;;;;;23.43;11.10;;;;;;;;;;6289204;22;20205;-91
2022/12/08 01:05:11;;;;;;;24.80;11.43;;;;;;;;;;6289562;22;20153;-92
2022/12/08 01:08:18;;;;;;;26.23;11.17;;;;;;;;;;6290016;22;20146;-92
2022/12/08 01:11:23;;;;;;;23.57;10.77;;;;;;;;;;6289707;22;20170;-91
2022/12/08 01:14:28;;;;;;;23.40;10.93;;;;;;;;;;6289599;22;20170;-93
2022/12/08 01:17:33;;;;;;;25.57;11.43;;;;;;;;;;6287434;22;20209;-93
2022/12/08 01:20:39;;;;;;;23.50;10.00;;;;;;;;;;6288719;22;20201;-91
2022/12/08 01:23:45;;;;;;;24.27;11.10;;;;;;;;;;6285999;22;20214;-92
2022/12/08 01:26:52;;;;;;;21.60;9.63;;;;;;;;;;6289392;22;20166;-93
2022/12/08 01:29:57;;;;;;;27.20;10.53;;;;;;;;;;6291338;22;20246;-92
2022/12/08 01:33:02;;;;;;;23.77;10.17;;;;;;;;;;6288116;22;20162;-95
2022/12/08 01:36:08;;;;;;;24.13;10.70;;;;;;;;;;6288700;22;20154;-93
2022/12/08 01:39:16;;;;;;;23.07;11.00;;;;;;;;;;6288276;22;20150;-92
2022/12/08 01:42:23;;;;;;;23.90;11.07;;;;;;;;;;6290441;22;20142;-93
2022/12/08 01:45:29;;;;;;;27.83;11.23;;;;;;;;;;6293044;22;20482;-90
2022/12/08 01:48:35;;;;;;;23.27;10.93;;;;;;;;;;6292869;22;20166;-91
2022/12/08 01:51:42;;;;;;;26.23;11.33;;;;;;;;;;6293138;22;20161;-92
2022/12/08 01:54:50;;;;;;;25.73;11.43;;;;;;;;;;6275051;22;20201;-91
2022/12/08 01:57:57;;;;;;;29.17;11.63;;;;;;;;;;6276731;22;20169;-92
2022/12/08 02:01:02;;;;;;;25.47;11.50;;;;;;;;;;6276328;22;20259;-92
2022/12/08 02:04:08;;;;;;;27.17;11.33;;;;;;;;;;6273719;22;20249;-92
2022/12/08 02:07:14;;;;;;;26.17;11.23;;;;;;;;;;6275021;22;20169;-91
2022/12/08 02:10:22;;;;;;;23.17;10.20;;;;;;;;;;6280213;22;20174;-92
2022/12/08 02:13:28;;;;;;;25.77;11.23;;;;;;;;;;6278698;22;20188;-95
2022/12/08 02:16:40;;;;;;;27.10;10.83;;;;;;;;;;6279032;22;20193;-93
2022/12/08 02:20:07;;;;;;;25.30;10.13;;;;;;;;;;6278362;22;20190;-94
2022/12/08 02:23:19;;;;;;;26.23;10.80;;;;;;;;;;6269101;22;20189;-92
2022/12/08 02:26:53;;;;;;;28.27;11.70;;;;;;;;;;6278454;22;20213;-93
2022/12/08 02:30:31;;;;;;;25.30;11.03;;;;;;;;;;6274821;22;20216;-93
2022/12/08 02:34:06;;;;;;;21.63;10.30;;;;;;;;;;6183294;22;20172;-95
2022/12/08 02:37:16;;;;;;;25.17;10.97;;;;;;;;;;6274353;22;20161;-95
2022/12/08 02:40:24;;;;;;;26.13;11.07;;;;;;;;;;6273741;22;20193;-93
2022/12/08 02:43:33;;;;;;;25.63;11.30;;;;;;;;;;6273819;22;20178;-92
2022/12/08 02:46:40;;;;;;;25.00;11.17;;;;;;;;;;6274322;22;20166;-92
2022/12/08 02:49:46;;;;;;;25.43;11.10;;;;;;;;;;6273897;22;20174;-91
2022/12/08 02:52:53;;;;;;;28.13;11.07;;;;;;;;;;6274670;22;20240;-91
2022/12/08 02:56:03;;;;;;;29.30;12.43;;;;;;;;;;6272294;22;20189;-93
2022/12/08 02:59:13;;;;;;;26.07;11.67;;;;;;;;;;6272575;22;20166;-91
2022/12/08 03:02:26;;;;;;;25.53;11.93;;;;;;;;;;6273534;22;20169;-92
2022/12/08 03:05:35;;;;;;;25.53;11.70;;;;;;;;;;6275183;22;20189;-93
2022/12/08 03:08:47;;;;;;;27.67;11.50;;;;;;;;;;6275117;22;20166;-93
2022/12/08 03:12:02;;;;;;;25.13;11.03;;;;;;;;;;6272334;22;20174;-91
2022/12/08 03:15:09;;;;;;;29.23;12.20;;;;;;;;;;6273483;22;20192;-90
2022/12/08 03:18:16;;;;;;;25.43;11.83;;;;;;;;;;6271824;22;20200;-94
2022/12/08 03:21:22;;;;;;;25.57;11.13;;;;;;;;;;6272631;22;20189;-92
2022/12/08 03:24:29;;;;;;;26.93;11.03;;;;;;;;;;6272296;22;20265;-92
2022/12/08 03:27:35;;;;;;;31.73;12.00;;;;;;;;;;6270740;22;20161;-91
2022/12/08 03:30:51;;;;;;;32.00;12.87;;;;;;;;;;6271272;22;20218;-91
2022/12/08 03:33:57;;;;;;;26.20;11.73;;;;;;;;;;6270834;22;20249;-92
2022/12/08 03:37:02;;;;;;;25.73;12.13;;;;;;;;;;6272031;22;20202;-94
2022/12/08 03:40:11;;;;;;;28.73;11.13;;;;;;;;;;6272562;22;20210;-92
2022/12/08 03:43:16;;;;;;;26.80;11.57;;;;;;;;;;6270646;22;20209;-90
2022/12/08 03:46:22;;;;;;;29.27;12.63;;;;;;;;;;6272086;22;20149;-93
2022/12/08 03:49:27;;;;;;;28.90;11.90;;;;;;;;;;6272508;22;20174;-93
2022/12/08 03:52:33;;;;;;;26.47;11.23;;;;;;;;;;6271057;22;20200;-93
2022/12/08 03:55:39;;;;;;;27.60;12.33;;;;;;;;;;6272106;22;20204;-92
2022/12/08 03:58:45;;;;;;;28.00;12.03;;;;;;;;;;6271233;22;20221;-91
2022/12/08 04:01:50;;;;;;;31.27;12.43;;;;;;;;;;6270216;22;20205;-92
2022/12/08 04:04:55;;;;;;;27.37;12.37;;;;;;;;;;6272169;22;20239;-91
2022/12/08 04:08:00;;;;;;;28.13;12.47;;;;;;;;;;6270528;22;20212;-93
2022/12/08 04:11:07;;;;;;;27.57;11.63;;;;;;;;;;6272278;22;20150;-94
2022/12/08 04:14:13;;;;;;;29.73;11.47;;;;;;;;;;6271770;22;20161;-93
2022/12/08 04:17:18;;;;;;;29.27;12.63;;;;;;;;;;6272421;22;20251;-93
2022/12/08 04:20:23;;;;;;;25.47;11.07;;;;;;;;;;6270968;22;20194;-91
2022/12/08 04:23:28;;;;;;;26.83;10.97;;;;;;;;;;6270728;22;20608;-93
2022/12/08 04:26:35;;;;;;;27.00;11.00;;;;;;;;;;6271739;22;20153;-92
2022/12/08 04:29:40;;;;;;;29.77;11.40;;;;;;;;;;6270782;22;20205;-94
2022/12/08 04:32:45;;;;;;;32.30;12.27;;;;;;;;;;6270280;22;20222;-93
2022/12/08 04:35:50;;;;;;;27.07;12.00;;;;;;;;;;6272045;22;20189;-92
2022/12/08 04:38:55;;;;;;;27.47;11.73;;;;;;;;;;6272184;22;20519;-93
2022/12/08 04:42:02;;;;;;;28.73;11.73;;;;;;;;;;6271544;22;20194;-94
2022/12/08 04:45:07;;;;;;;27.30;11.67;;;;;;;;;;6271164;22;20182;-92
2022/12/08 04:48:13;;;;;;;31.53;12.60;;;;;;;;;;6270038;22;20166;-92
2022/12/08 04:51:19;;;;;;;29.07;12.60;;;;;;;;;;6270542;22;20202;-92
2022/12/08 04:54:24;;;;;;;25.37;11.97;;;;;;;;;;6270784;22;20213;-93
2022/12/08 04:57:30;;;;;;;30.20;12.77;;;;;;;;;;6269325;22;20165;-94
2022/12/08 05:00:35;;;;;;;31.73;13.00;;;;;;;;;;6271219;22;20195;-93
2022/12/08 05:03:40;;;;;;;29.90;12.17;;;;;;;;;;6269914;22;20161;-93
2022/12/08 05:06:46;;;;;;;31.07;12.90;;;;;;;;;;6271815;22;20257;-90
2022/12/08 05:09:52;;;;;;;25.73;11.80;;;;;;;;;;6272437;22;20205;-95
2022/12/08 05:13:00;;;;;;;26.97;11.90;;;;;;;;;;6272139;22;20317;-92
2022/12/08 05:16:06;;;;;;;31.03;12.80;;;;;;;;;;6272429;22;20164;-92
2022/12/08 05:19:11;;;;;;;28.60;11.80;;;;;;;;;;6274219;22;20244;-93
2022/12/08 05:22:17;;;;;;;29.30;12.60;;;;;;;;;;6274863;22;20373;-92
2022/12/08 05:25:24;;;;;;;29.10;11.87;;;;;;;;;;6277830;22;20205;-91
2022/12/08 05:28:34;;;;;;;31.20;12.53;;;;;;;;;;6277789;22;20652;-94
2022/12/08 05:31:40;;;;;;;27.40;11.93;;;;;;;;;;6276916;22;20153;-91
2022/12/08 05:34:46;;;;;;;30.37;12.63;;;;;;;;;;6279741;22;20165;-92
2022/12/08 05:37:52;;;;;;;34.87;13.60;;;;;;;;;;6278131;22;20234;-92
2022/12/08 05:40:58;;;;;;;35.33;14.23;;;;;;;;;;6276208;22;20273;-94
2022/12/08 05:44:06;;;;;;;33.20;13.57;;;;;;;;;;6276086;22;20166;-93
2022/12/08 05:47:11;;;;;;;30.83;13.07;;;;;;;;;;6276024;22;20273;-91
2022/12/08 05:50:16;;;;;;;35.00;13.83;;;;;;;;;;6275316;22;20184;-93
2022/12/08 05:53:22;;;;;;;31.73;13.77;;;;;;;;;;6272489;22;20628;-93
2022/12/08 05:56:27;;;;;;;33.63;12.77;;;;;;;;;;6273945;22;20177;-92
2022/12/08 05:59:34;;;;;;;30.57;12.77;;;;;;;;;;6274202;22;20165;-90
2022/12/08 06:02:39;;;;;;;29.03;12.47;;;;;;;;;;6274542;22;20198;-92
2022/12/08 06:05:46;;;;;;;30.37;12.63;;;;;;;;;;6278059;22;20173;-93
2022/12/08 06:09:01;;;;;;;31.13;13.03;;;;;;;;;;6274752;22;20162;-93
2022/12/08 06:16:11;;;;;;;30.97;13.40;;;;;;;;;;6274856;22;20230;-94
2022/12/08 06:19:19;;;;;;;32.93;13.83;;;;;;;;;;6274685;22;20189;-92
2022/12/08 06:22:26;;;;;;;39.00;15.03;;;;;;;;;;6275040;22;20198;-91
2022/12/08 06:25:31;;;;;;;36.67;14.47;;;;;;;;;;6276692;22;20214;-91
2022/12/08 06:28:45;;;;;;;31.30;12.90;;;;;;;;;;6276531;22;20173;-91
2022/12/08 06:31:52;;;;;;;31.90;13.07;;;;;;;;;;6276652;22;20210;-92
2022/12/08 06:34:59;;;;;;;29.07;13.00;;;;;;;;;;6276484;22;20177;-92
2022/12/08 06:38:04;;;;;;;29.87;12.87;;;;;;;;;;6279142;22;20211;-93
2022/12/08 06:41:16;;;;;;;36.07;13.57;;;;;;;;;;6279685;22;20641;-93
2022/12/08 06:44:22;;;;;;;31.47;14.00;;;;;;;;;;6277964;22;20166;-92
2022/12/08 06:47:28;;;;;;;34.30;13.33;;;;;;;;;;6276567;22;20198;-92
2022/12/08 06:50:35;;;;;;;30.93;12.37;;;;;;;;;;6278202;22;20149;-92
2022/12/08 06:53:40;;;;;;;34.30;13.63;;;;;;;;;;6278985;22;20150;-92
2022/12/08 06:56:45;;;;;;;30.97;13.03;;;;;;;;;;6278208;22;20184;-91
2022/12/08 06:59:50;;;;;;;32.67;13.40;;;;;;;;;;6274634;22;20230;-90
2022/12/08 07:02:56;;;;;;;33.97;13.50;;;;;;;;;;6276533;22;20193;-90
2022/12/08 07:06:08;;;;;;;32.83;13.27;;;;;;;;;;6278215;22;20161;-92
2022/12/08 07:09:14;;;;;;;28.40;12.33;;;;;;;;;;6276192;22;20157;-91
2022/12/08 07:12:21;;;;;;;29.17;12.27;;;;;;;;;;6274762;22;20218;-91
2022/12/08 07:15:26;;;;;;;35.77;13.07;;;;;;;;;;6275468;22;20292;-92
2022/12/08 07:18:32;;;;;;;29.87;13.67;;;;;;;;;;6274666;22;20238;-91
2022/12/08 07:21:39;;;;;;;32.47;12.87;;;;;;;;;;6273369;22;20209;-92
2022/12/08 07:24:45;;;;;;;48.27;13.67;;;;;;;;;;6275512;22;20181;-93
2022/12/08 07:27:52;;;;;;;33.00;14.07;;;;;;;;;;6275775;22;20186;-92
2022/12/08 07:30:57;;;;;;;32.30;13.40;;;;;;;;;;6276023;22;20166;-91
2022/12/08 07:34:02;;;;;;;33.67;14.10;;;;;;;;;;6275250;22;20170;-91
2022/12/08 07:37:09;;;;;;;39.57;13.00;;;;;;;;;;6273473;22;20149;-93
2022/12/08 07:40:15;;;;;;;34.97;13.67;;;;;;;;;;6274283;22;20606;-92
2022/12/08 07:43:20;;;;;;;32.13;13.37;;;;;;;;;;6272935;22;20189;-92
2022/12/08 07:46:25;;;;;;;29.40;13.37;;;;;;;;;;6273318;22;20181;-93
2022/12/08 07:49:32;;;;;;;37.40;14.83;;;;;;;;;;6272811;22;20161;-93
2022/12/08 07:52:39;;;;;;;34.53;12.77;;;;;;;;;;6274447;22;20153;-91
2022/12/08 07:55:44;;;;;;;35.50;14.13;;;;;;;;;;6272888;22;20185;-91
2022/12/08 07:58:50;;;;;;;32.20;12.87;;;;;;;;;;6274975;22;20215;-94
2022/12/08 08:01:55;;;;;;;35.53;15.07;;;;;;;;;;6274412;22;20197;-93
2022/12/08 08:05:01;;;;;;;35.33;14.77;;;;;;;;;;6274015;22;20162;-94
2022/12/08 08:08:07;;;;;;;46.00;15.83;;;;;;;;;;6271948;22;20169;-90
2022/12/08 08:11:12;;;;;;;36.50;15.40;;;;;;;;;;6271708;22;20162;-92
2022/12/08 08:14:18;;;;;;;33.23;14.17;;;;;;;;;;6274090;22;20234;-93
2022/12/08 08:17:24;;;;;;;36.43;14.77;;;;;;;;;;6272841;22;20221;-92
2022/12/08 08:20:28;;;;;;;34.10;14.07;;;;;;;;;;6273142;22;20240;-93
2022/12/08 08:23:36;;;;;;;35.03;14.27;;;;;;;;;;6272451;22;20174;-92
2022/12/08 08:26:42;;;;;;;34.67;13.50;;;;;;;;;;6272388;22;20158;-92
2022/12/08 08:29:47;;;;;;;32.73;12.97;;;;;;;;;;6273507;22;20154;-89
2022/12/08 08:32:54;;;;;;;32.43;13.40;;;;;;;;;;6276659;22;20232;-92
2022/12/08 08:36:00;;;;;;;32.83;13.87;;;;;;;;;;6276556;22;20185;-92
2022/12/08 08:39:30;;;;;;;34.27;15.43;;;;;;;;;;6276831;22;20227;-91
2022/12/08 08:42:37;;;;;;;30.43;13.77;;;;;;;;;;6277105;22;20221;-91
2022/12/08 08:45:44;;;;;;;35.87;14.00;;;;;;;;;;6274365;22;20161;-92
2022/12/08 08:48:52;;;;;;;40.33;15.63;;;;;;;;;;6276000;22;20188;-92
2022/12/08 08:51:58;;;;;;;37.70;14.17;;;;;;;;;;6274087;22;20173;-94
2022/12/08 08:55:04;;;;;;;37.37;14.33;;;;;;;;;;6275156;22;20205;-91
2022/12/08 08:58:16;;;;;;;36.13;15.53;;;;;;;;;;6273306;22;20162;-91
2022/12/08 09:01:23;;;;;;;35.40;14.87;;;;;;;;;;6277746;22;20165;-92
2022/12/08 09:04:29;;;;;;;34.27;14.47;;;;;;;;;;6275929;22;20189;-93
2022/12/08 09:07:35;;;;;;;33.37;13.53;;;;;;;;;;6278212;22;20166;-93
2022/12/08 09:10:40;;;;;;;33.50;14.27;;;;;;;;;;6275759;22;20174;-91
2022/12/08 09:13:49;;;;;;;35.00;14.33;;;;;;;;;;6274350;22;20169;-92
2022/12/08 09:16:55;;;;;;;36.27;14.57;;;;;;;;;;6276194;22;20222;-93
2022/12/08 09:20:00;;;;;;;32.83;14.10;;;;;;;;;;6276018;22;20548;-94
2022/12/08 09:23:07;;;;;;;35.77;14.27;;;;;;;;;;6274841;22;20527;-94
2022/12/08 09:26:13;;;;;;;34.40;14.17;;;;;;;;;;6273288;22;20163;-92
2022/12/08 09:29:20;;;;;;;38.67;14.70;;;;;;;;;;6275197;22;20157;-89
2022/12/08 09:32:25;;;;;;;36.93;14.83;;;;;;;;;;6275203;22;20212;-92
2022/12/08 09:35:34;;;;;;;33.40;15.13;;;;;;;;;;6275676;22;20166;-91
2022/12/08 09:38:40;;;;;;;37.07;14.50;;;;;;;;;;6273983;22;20162;-94
2022/12/08 09:41:49;;;;;;;38.03;14.07;;;;;;;;;;6272973;22;20630;-93
2022/12/08 09:45:01;;;;;;;42.90;17.13;;;;;;;;;;6273895;22;20417;-91
2022/12/08 09:48:08;;;;;;;37.20;15.03;;;;;;;;;;6274781;22;20166;-92
2022/12/08 09:51:16;;;;;;;46.37;15.33;;;;;;;;;;6276514;22;20240;-90
2022/12/08 09:54:23;;;;;;;37.20;15.13;;;;;;;;;;6276611;22;20189;-91
2022/12/08 09:57:29;;;;;;;37.23;15.10;;;;;;;;;;6274157;22;20196;-91
2022/12/08 10:00:42;;;;;;;34.97;15.47;;;;;;;;;;6275806;22;20157;-90
2022/12/08 10:03:53;;;;;;;31.63;14.07;;;;;;;;;;6277371;22;20198;-91
2022/12/08 10:07:06;;;;;;;36.23;13.90;;;;;;;;;;6274897;22;20172;-91
2022/12/08 10:10:16;;;;;;;32.57;14.17;;;;;;;;;;6274914;22;20273;-90
2022/12/08 10:13:23;;;;;;;30.63;14.20;;;;;;;;;;6271977;22;20157;-91
2022/12/08 10:16:34;;;;;;;34.27;14.40;;;;;;;;;;6277621;22;20166;-93
2022/12/08 10:19:40;;;;;;;34.93;14.50;;;;;;;;;;6274365;22;20617;-91
2022/12/08 10:22:47;;;;;;;35.70;16.10;;;;;;;;;;6275156;22;20783;-93
2022/12/08 10:25:53;;;;;;;34.63;13.40;;;;;;;;;;6276367;22;20165;-93
2022/12/08 10:29:01;;;;;;;29.97;14.03;;;;;;;;;;6275315;22;20184;-92
2022/12/08 10:32:11;;;;;;;36.40;13.73;;;;;;;;;;6275961;22;20189;-93
